Beaumont, TX (77705)

3:09 AM CDT on May 07, 2015 (GMT -0500)
K5RWL | | Change Station
CLOSE
Current Station
Personal Weather Station
Location: Beaumont, TX
Elevation: 26 ft
Nearby Weather Stations

Elev 26 ft 30.05 °N, 94.19 °W | Updated 2 minutes ago

Partly Cloudy
Partly Cloudy
71.6 °F
Feels Like 71.6 °F
N
4.2
Wind Variable Wind from ESE

Today
High -- | Low -- °F
--% Chance of Precip.
Yesterday
High -- | Low -- °F
Precip. -- in
6:29 AM 7:57 PM
Waning Gibbous, 89% visible
Pressure 29.94 in
Visibility 10.0 miles
Clouds Scattered Clouds 5500 ft
Dew Point 71 °F
Humidity 99%
Rainfall 0.00 in
Snow Depth Not available.
UV 0 out of 12
Pollen 7.00 out of 12
Air Quality Not available.
Flu Activity Sporadic
METAR KBMT 070735Z AUTO 14005KT 10SM SCT055 22/21 A2994 RMK AO2 T02210212

More Conditions Fewer Conditions

Pressure 29.94 in
Visibility 10.0 miles
Clouds Scattered Clouds 5500 ft
Dew Point 71 °F
Humidity 99%
Rainfall 0.00 in
Snow Depth Not available.
UV 0 out of 12
Pollen 7.00 out of 12
Air Quality Not available.
Flu Activity Sporadic
METAR KBMT 070735Z AUTO 14005KT 10SM SCT055 22/21 A2994 RMK AO2 T02210212

More Conditions Fewer Conditions

10-Day Weather Forecast

Almanac

Astronomy

May. 07, 2015 Rise Set
Actual Time
Civil Twilight
Nautical Twilight
Astronomical Twilight
Moon
Length of Visible Light
Length of Day
Tomorrow will be .
, % of the Moon is Illuminated

Today's Extremes

State Highs State Lows

Community

WunderPhotos

Upload Photos

1,819,126 photos uploaded!

WunderBlogs® & News

Nearby

Air Quality

  Air Quality AQ Index Pollutant
Not available.

Snow Depth

Station Depth Elevation

Earthquake Activity

City Distance Mag. Time & Date
Minimum magnitude displayed is 2.5.

Coastal Water Temperatures

Place Temperature

Stations

Nearby Weather Stations

Station Location Temp. Windchill Dew Point Humidity Wind Precip. Elev Updated Type